Time;durP1;ratioP1;P1;durP2;ratioP2;P2;SDS_P1;SDS_P2;PMS_P1;PMS_P2;Temp;Humidity;BMP_temperature;BMP_pressure;BME280_temperature;BME280_humidity;BME280_pressure;Samples;Min_cycle;Max_cycle;Signal;HPM_P1;HPM_P2
2023/08/28 00:00:30;;;;;;;3.10;3.00;;;19.10;99.90;;;19.39;79.50;101035.06;5043057;28;20049;-72
2023/08/28 00:02:59;;;;;;;2.67;2.58;;;19.10;99.90;;;19.38;79.85;101044.03;5045814;28;20088;-71
2023/08/28 00:05:30;;;;;;;2.80;2.70;;;19.10;99.90;;;19.29;80.80;101049.72;5043854;28;20133;-72
2023/08/28 00:07:59;;;;;;;2.60;2.50;;;19.00;99.90;;;19.18;81.33;101046.56;5046781;28;20128;-72
2023/08/28 00:10:27;;;;;;;2.75;2.65;;;18.90;99.90;;;19.12;81.26;101045.00;5043126;28;20049;-72
2023/08/28 00:12:57;;;;;;;2.90;2.80;;;18.80;99.90;;;19.08;81.17;101054.09;5046092;28;20061;-72
2023/08/28 00:15:26;;;;;;;3.07;2.97;;;18.70;99.90;;;19.08;80.79;101037.09;5044074;28;20041;-72
2023/08/28 00:17:54;;;;;;;3.15;3.05;;;18.70;99.90;;;18.93;80.73;101052.81;5045351;28;20043;-71
2023/08/28 00:20:22;;;;;;;3.00;2.90;;;18.60;99.90;;;18.87;80.97;101042.31;5044655;28;20045;-72
2023/08/28 00:22:51;;;;;;;3.08;2.97;;;18.50;99.90;;;18.84;81.19;101034.38;5044609;28;20081;-72
2023/08/28 00:25:19;;;;;;;2.72;2.63;;;18.50;99.90;;;18.88;81.51;101038.69;5045480;28;20049;-72
2023/08/28 00:27:48;;;;;;;3.25;3.15;;;18.50;99.90;;;18.86;81.62;101042.34;5043269;28;20037;-72
2023/08/28 00:30:17;;;;;;;2.67;2.58;;;18.50;99.90;;;18.81;81.78;101041.66;5041458;28;20107;-71
2023/08/28 00:32:46;;;;;;;3.10;3.00;;;18.50;99.90;;;18.82;81.53;101035.34;5046594;28;20429;-72
2023/08/28 00:35:14;;;;;;;3.67;3.53;;;18.50;99.90;;;18.80;81.44;101035.41;5045513;28;20298;-72
2023/08/28 00:37:43;;;;;;;2.70;2.60;;;18.40;99.90;;;18.78;81.68;101048.00;5042286;28;20084;-72
2023/08/28 00:40:13;;;;;;;3.13;3.03;;;18.40;99.90;;;18.79;82.22;101043.53;5044063;28;20053;-72
2023/08/28 00:42:42;;;;;;;2.92;2.83;;;18.40;99.90;;;18.78;82.48;101042.63;5044625;28;20056;-72
2023/08/28 00:45:12;;;;;;;2.60;2.50;;;18.40;99.90;;;18.75;82.69;101048.13;5050736;28;20045;-73
2023/08/28 00:47:46;;;;;;;2.85;2.75;;;18.40;99.90;;;18.77;82.79;101038.22;5044176;28;20405;-72
2023/08/28 00:50:15;;;;;;;3.00;2.90;;;18.40;99.90;;;18.80;82.56;101032.75;5049291;28;20052;-72
2023/08/28 00:52:43;;;;;;;2.92;2.83;;;18.40;99.90;;;18.80;82.32;101030.06;5040663;28;20628;-72
2023/08/28 00:55:13;;;;;;;2.55;2.45;;;18.50;99.90;;;18.80;82.11;101030.06;5039372;28;20095;-72
2023/08/28 00:57:41;;;;;;;2.88;2.78;;;18.50;99.90;;;18.80;82.15;101026.50;5041502;28;20051;-72
2023/08/28 01:00:11;;;;;;;2.83;2.72;;;18.40;99.90;;;18.72;82.86;101018.72;5044143;28;20053;-71
2023/08/28 01:02:40;;;;;;;3.10;3.00;;;18.40;99.90;;;18.75;83.36;101018.63;5044094;28;20152;-72
2023/08/28 01:05:11;;;;;;;3.38;3.28;;;18.40;99.90;;;18.67;83.73;101026.06;5043496;28;20095;-72
2023/08/28 01:07:52;;;;;;;3.13;3.03;;;18.30;99.90;;;18.62;84.56;101033.38;5045324;28;20095;-72
2023/08/28 01:10:28;;;;;;;3.67;3.47;;;18.30;99.90;;;18.53;84.95;101033.69;5041936;28;20065;-72
2023/08/28 01:13:03;;;;;;;2.90;2.80;;;18.20;99.90;;;18.36;84.19;101030.69;5041931;28;20049;-72
2023/08/28 01:15:33;;;;;;;3.33;3.22;;;18.00;99.90;;;18.32;84.41;101031.72;5032473;28;20049;-71
2023/08/28 01:18:05;;;;;;;3.20;3.10;;;18.00;99.90;;;18.23;84.36;101024.00;5033949;28;20059;-72
2023/08/28 01:20:37;;;;;;;3.50;3.40;;;17.90;99.90;;;18.18;85.05;101027.72;5033755;28;20092;-72
2023/08/28 01:23:18;;;;;;;2.90;2.80;;;17.80;99.90;;;18.07;86.05;101020.06;5040484;28;20057;-72
2023/08/28 01:25:48;;;;;;;3.10;3.00;;;17.70;99.90;;;18.01;86.51;101012.22;5041063;28;20053;-72
2023/08/28 01:28:17;;;;;;;;;;;17.60;99.90;;;18.06;86.73;101010.25;5044872;28;20076;-72
2023/08/28 01:30:48;;;;;;;3.13;3.03;;;17.60;99.90;;;18.05;86.44;101016.56;5050515;28;19925;-71
2023/08/28 01:33:18;;;;;;;3.08;2.97;;;17.70;99.90;;;18.08;86.26;101020.94;5041991;28;20505;-71
2023/08/28 01:35:53;;;;;;;2.80;2.70;;;17.70;99.90;;;17.98;86.42;101021.22;5051813;28;20053;-71
2023/08/28 01:38:31;;;;;;;2.70;2.60;;;17.60;99.90;;;17.93;86.93;101017.84;5048988;28;20144;-71
2023/08/28 01:41:07;;;;;;;2.90;2.80;;;17.60;99.90;;;17.89;86.82;101007.25;5033365;28;20104;-71
2023/08/28 01:43:38;;;;;;;2.95;2.85;;;17.50;99.90;;;17.91;86.93;101019.69;5040099;28;20142;-71
2023/08/28 01:46:06;;;;;;;;;;;17.60;99.90;;;17.94;86.86;101018.72;5033836;28;20041;-71
2023/08/28 01:48:36;;;;;;;2.55;2.45;;;17.60;99.90;;;17.97;86.40;101007.91;5048012;28;19965;-71
2023/08/28 01:51:04;;;;;;;3.22;3.13;;;17.60;99.90;;;17.92;86.31;101015.22;5042029;28;20146;-72
2023/08/28 01:53:33;;;;;;;2.92;2.83;;;17.60;99.90;;;17.86;86.62;101012.72;5049754;28;20076;-71
2023/08/28 01:56:24;;;;;;;2.75;2.65;;;17.50;99.90;;;17.81;86.56;101012.88;5040659;28;20446;-71
2023/08/28 01:58:55;;;;;;;2.85;2.75;;;17.50;99.90;;;17.75;86.76;101018.41;5031362;28;20495;-72
2023/08/28 02:01:26;;;;;;;2.83;2.72;;;17.40;99.90;;;17.67;87.15;101022.25;5039349;28;20056;-71
2023/08/28 02:03:56;;;;;;;2.92;2.83;;;17.40;99.90;;;17.64;87.47;101033.03;5042302;28;20053;-72
2023/08/28 02:06:25;;;;;;;2.75;2.65;;;17.30;99.90;;;17.59;87.65;101030.53;5047612;28;20046;-72
2023/08/28 02:08:53;;;;;;;2.80;2.70;;;17.30;99.90;;;17.56;87.59;101027.94;5039911;28;20099;-72
2023/08/28 02:11:22;;;;;;;2.92;2.83;;;17.30;99.90;;;17.57;87.82;101027.03;5033017;28;20045;-70
2023/08/28 02:13:51;;;;;;;3.08;2.97;;;17.20;99.90;;;17.64;87.56;101027.69;5032373;28;20099;-72
2023/08/28 02:16:20;;;;;;;2.73;2.63;;;17.30;99.90;;;17.68;87.25;101022.22;5039525;28;20049;-72
2023/08/28 02:18:49;;;;;;;2.90;2.80;;;17.30;99.90;;;17.67;87.09;101022.25;5032290;28;20498;-71
2023/08/28 02:21:17;;;;;;;3.13;3.03;;;17.30;99.90;;;17.71;87.57;101016.75;5040999;28;20048;-72
2023/08/28 02:23:46;;;;;;;2.80;2.70;;;17.40;99.90;;;17.71;87.79;101016.75;5041384;28;20044;-72
2023/08/28 02:26:15;;;;;;;2.70;2.60;;;17.40;99.90;;;17.75;87.80;101006.84;5050793;28;20057;-71
2023/08/28 02:28:43;;;;;;;2.90;2.80;;;17.40;99.90;;;17.78;87.82;100999.59;5040216;28;20549;-72
2023/08/28 02:31:13;;;;;;;3.22;3.13;;;17.40;99.90;;;17.82;87.69;100993.22;5043890;28;20052;-71
2023/08/28 02:33:41;;;;;;;2.85;2.75;;;17.50;99.90;;;17.82;87.97;100987.88;5040331;28;20053;-72
2023/08/28 02:36:10;;;;;;;2.90;2.80;;;17.50;99.90;;;17.84;87.90;100980.66;5041111;28;20049;-72
2023/08/28 02:38:38;;;;;;;3.05;2.95;;;17.50;99.90;;;17.91;87.54;100976.84;5043921;28;20095;-72
2023/08/28 02:41:07;;;;;;;2.80;2.70;;;17.50;99.90;;;18.02;87.58;100972.00;5041519;28;20045;-71
2023/08/28 02:43:38;;;;;;;2.92;2.83;;;17.70;99.90;;;17.92;87.69;100972.38;5041627;28;20044;-72
2023/08/28 02:46:06;;;;;;;3.03;2.92;;;17.60;99.90;;;17.85;87.60;100981.53;5050042;28;20053;-71
2023/08/28 02:48:36;;;;;;;2.78;2.67;;;17.50;99.90;;;17.81;87.91;100990.56;5041686;28;20037;-72
2023/08/28 02:51:04;;;;;;;2.80;2.70;;;17.40;99.90;;;17.74;88.04;100989.03;5043686;28;20044;-72
2023/08/28 02:53:33;;;;;;;2.83;2.72;;;17.40;99.90;;;17.60;87.74;100985.91;5040941;28;20045;-72
2023/08/28 02:56:24;;;;;;;3.17;3.08;;;17.30;99.90;;;17.53;87.70;100976.31;5050327;28;20052;-72
2023/08/28 02:58:53;;;;;;;3.30;3.20;;;17.20;99.90;;;17.54;87.77;100983.41;5042991;28;20490;-72
2023/08/28 03:01:22;;;;;;;2.90;2.80;;;17.20;99.90;;;17.47;87.71;100980.03;5039722;28;20044;-72
2023/08/28 03:03:52;;;;;;;2.90;2.80;;;17.10;99.90;;;17.52;87.82;100974.56;5039159;28;20053;-72
2023/08/28 03:06:20;;;;;;;2.97;2.88;;;17.20;99.90;;;17.46;87.65;100969.41;5049858;28;20131;-72
2023/08/28 03:08:49;;;;;;;3.00;2.90;;;17.10;99.90;;;17.47;87.48;100973.81;5041018;28;20049;-72
2023/08/28 03:11:17;;;;;;;3.10;3.00;;;17.10;99.90;;;17.30;86.54;100971.66;5049428;28;20139;-72
2023/08/28 03:13:45;;;;;;;3.10;3.00;;;17.00;99.90;;;17.17;87.42;100980.94;5040878;28;20076;-72
2023/08/28 03:16:14;;;;;;;3.25;3.15;;;16.80;99.90;;;17.17;88.70;100975.59;5040167;28;20111;-71
2023/08/28 03:18:42;;;;;;;3.00;2.90;;;16.80;99.90;;;17.17;88.93;100979.16;5042505;28;20045;-72
2023/08/28 03:21:12;;;;;;;3.05;2.95;;;16.80;99.90;;;17.10;89.43;100980.28;5043209;28;20548;-72
2023/08/28 03:23:40;;;;;;;3.20;3.10;;;16.70;99.90;;;17.14;89.38;100983.72;5054424;28;20053;-71
2023/08/28 03:26:09;;;;;;;2.88;2.78;;;16.80;99.90;;;17.15;89.29;100989.00;5034777;28;20061;-70
2023/08/28 03:28:38;;;;;;;2.90;2.80;;;16.80;99.90;;;17.21;89.41;100993.31;5035862;28;20076;-71
2023/08/28 03:31:06;;;;;;;3.15;3.05;;;16.90;99.90;;;17.20;89.48;100996.03;5035855;28;20076;-71
2023/08/28 03:33:35;;;;;;;3.03;2.92;;;16.90;99.90;;;17.19;89.66;101002.31;5042507;28;20502;-71
2023/08/28 03:36:06;;;;;;;3.15;3.05;;;16.80;99.90;;;17.22;89.89;100999.53;5043899;28;20069;-71
2023/08/28 03:38:36;;;;;;;2.90;2.80;;;16.80;99.90;;;17.15;90.31;101004.16;5052261;28;20049;-70
2023/08/28 03:41:09;;;;;;;3.47;3.38;;;16.80;99.90;;;17.21;90.24;101008.50;5047351;28;20053;-72
2023/08/28 03:43:38;;;;;;;3.10;3.00;;;16.80;99.90;;;17.22;90.26;101015.56;5043861;28;20047;-72
2023/08/28 03:46:06;;;;;;;3.10;3.00;;;16.90;99.90;;;17.21;90.75;101009.34;5043983;28;20283;-72
2023/08/28 03:48:34;;;;;;;2.90;2.80;;;16.80;99.90;;;17.30;90.85;101010.88;5045402;28;20057;-72
2023/08/28 03:51:03;;;;;;;5.43;5.13;;;16.90;99.90;;;17.42;90.68;101022.06;5044706;28;20045;-72
2023/08/28 03:53:31;;;;;;;3.03;2.92;;;17.00;99.90;;;17.46;90.49;101012.19;5046093;28;20045;-70
2023/08/28 03:56:01;;;;;;;3.10;3.00;;;17.10;99.90;;;17.49;90.50;101018.34;5043955;28;20049;-72
2023/08/28 03:58:29;;;;;;;3.17;3.07;;;17.10;99.90;;;17.57;90.33;101015.44;5051130;28;20060;-72
2023/08/28 04:00:57;;;;;;;3.22;3.13;;;17.20;99.90;;;17.60;90.39;101020.69;5040736;28;20139;-71
2023/08/28 04:03:26;;;;;;;3.13;3.03;;;17.20;99.90;;;17.65;90.57;101022.28;5045714;28;20410;-72
2023/08/28 04:05:54;;;;;;;10.10;9.25;;;17.30;99.90;;;17.68;90.64;101021.31;5043188;28;20380;-72
2023/08/28 04:08:23;;;;;;;3.10;3.00;;;17.30;99.90;;;17.74;90.58;101023.81;5046601;28;20049;-71
2023/08/28 04:10:52;;;;;;;3.13;3.03;;;17.40;99.90;;;17.80;90.48;101027.19;5035116;28;20044;-72
2023/08/28 04:13:22;;;;;;;3.20;3.10;;;17.40;99.90;;;17.81;90.70;101034.28;5041907;28;20038;-72
2023/08/28 04:15:51;;;;;;;2.92;2.83;;;17.40;99.90;;;17.61;91.58;101030.47;5039350;28;20549;-73
2023/08/28 04:18:19;;;;;;;3.13;3.03;;;17.20;99.90;;;17.59;92.52;101032.31;5041293;28;20042;-72
2023/08/28 04:20:49;;;;;;;2.93;2.83;;;17.20;99.90;;;17.66;92.70;101026.72;5042605;28;20057;-71
2023/08/28 04:23:17;;;;;;;3.10;3.00;;;17.20;99.90;;;17.67;92.16;101027.63;5045017;28;20164;-72
2023/08/28 04:25:46;;;;;;;2.70;2.60;;;17.30;99.90;;;17.66;91.50;101044.56;5050117;28;20430;-72
2023/08/28 04:28:15;;;;;;;2.80;2.70;;;17.20;99.90;;;17.61;91.28;101049.19;5053082;28;20115;-72
2023/08/28 04:30:46;;;;;;;2.97;2.88;;;17.20;99.90;;;17.62;91.32;101046.47;5057030;28;20461;-71
2023/08/28 04:33:15;;;;;;;3.10;3.00;;;17.20;99.90;;;17.69;91.68;101053.38;5053189;28;20060;-70
2023/08/28 04:35:43;;;;;;;3.17;3.08;;;17.30;99.90;;;17.79;91.49;101043.25;5050956;28;20053;-71
2023/08/28 04:38:12;;;;;;;2.70;2.60;;;17.40;99.90;;;17.94;90.82;101058.88;5051657;28;20060;-71
2023/08/28 04:40:40;;;;;;;3.17;3.08;;;17.60;99.90;;;17.95;90.30;101065.97;5051397;28;20148;-71
2023/08/28 04:43:09;;;;;;;2.90;2.80;;;17.60;99.90;;;17.97;89.75;101065.00;5050410;28;20052;-71
2023/08/28 04:45:37;;;;;;;3.00;2.90;;;17.60;99.90;;;17.98;89.39;101072.09;5044423;28;20446;-72
2023/08/28 04:48:07;;;;;;;2.70;2.60;;;17.70;99.90;;;17.87;89.56;101081.38;5042842;28;20053;-70
2023/08/28 04:50:36;;;;;;;3.00;2.90;;;17.60;99.90;;;17.93;89.57;101076.72;5045718;28;20053;-71
2023/08/28 04:53:05;;;;;;;2.83;2.72;;;17.60;99.90;;;17.98;89.33;101076.59;5032730;28;20047;-71
2023/08/28 04:55:34;;;;;;;2.90;2.80;;;17.60;99.90;;;18.01;89.56;101079.16;5040953;28;20045;-72
2023/08/28 04:58:03;;;;;;;2.80;2.70;;;17.70;99.90;;;17.95;89.47;101084.69;5048786;28;20083;-72
2023/08/28 05:00:31;;;;;;;3.15;3.05;;;17.60;99.90;;;17.92;89.66;101091.00;5043664;28;20052;-72
2023/08/28 05:02:59;;;;;;;2.85;2.75;;;17.60;99.90;;;17.90;89.46;101102.72;5042907;28;20055;-72
2023/08/28 05:05:29;;;;;;;2.70;2.60;;;17.50;99.90;;;17.78;89.54;101084.34;5042667;28;20054;-72
2023/08/28 05:07:58;;;;;;;2.97;2.87;;;17.50;99.90;;;17.82;89.90;101088.69;5043281;28;20403;-71
2023/08/28 05:10:27;;;;;;;3.42;3.33;;;17.50;99.90;;;17.87;90.03;101081.38;5043584;28;20303;-70
2023/08/28 05:12:55;;;;;;;3.42;3.33;;;17.50;99.90;;;17.93;90.04;101108.84;5042471;28;20069;-71
2023/08/28 05:15:23;;;;;;;2.88;2.78;;;17.60;99.90;;;18.00;90.07;101093.47;5044431;28;20075;-71
2023/08/28 05:17:52;;;;;;;2.97;2.88;;;17.60;99.90;;;18.02;90.21;101097.00;5033839;28;20096;-71
2023/08/28 05:20:20;;;;;;;3.20;3.10;;;17.70;99.90;;;18.08;90.42;101101.28;5033789;28;20463;-71
2023/08/28 05:22:50;;;;;;;3.10;3.00;;;17.70;99.90;;;18.10;90.79;101086.88;5040354;28;20057;-71
2023/08/28 05:25:19;;;;;;;3.10;3.00;;;17.70;99.90;;;18.11;90.68;101090.44;5033573;28;20058;-70
2023/08/28 05:27:47;;;;;;;2.70;2.60;;;17.70;99.90;;;18.14;90.75;101085.00;5043736;28;20103;-72
2023/08/28 05:30:15;;;;;;;3.05;2.95;;;17.80;99.90;;;18.22;90.77;101099.88;5041936;28;20132;-71
2023/08/28 05:32:44;;;;;;;3.03;2.92;;;17.90;99.90;;;18.28;90.79;101099.69;5042956;28;20057;-73
2023/08/28 05:35:12;;;;;;;3.00;2.90;;;17.90;99.90;;;18.40;90.84;101099.31;5042269;28;20049;-73
2023/08/28 05:37:41;;;;;;;2.95;2.85;;;18.10;99.90;;;18.44;90.76;101106.34;5043743;28;20493;-72
2023/08/28 05:40:14;;;;;;;3.00;2.90;;;18.10;99.90;;;18.40;91.02;101093.06;5044457;28;20049;-72
2023/08/28 05:42:44;;;;;;;2.88;2.78;;;18.10;99.90;;;18.50;91.01;101098.13;5032387;28;20099;-73
2023/08/28 05:45:12;;;;;;;3.17;3.08;;;18.20;99.90;;;18.53;91.07;101103.34;5039290;28;20045;-72
2023/08/28 05:47:41;;;;;;;2.70;2.60;;;18.20;99.90;;;18.52;90.62;101098.94;5041286;28;20558;-72
2023/08/28 05:50:11;;;;;;;2.92;2.83;;;18.30;99.90;;;18.50;90.63;101099.91;5049156;28;20131;-71
2023/08/28 05:52:39;;;;;;;3.25;3.15;;;18.20;99.90;;;18.50;90.98;101100.78;5043678;28;20053;-72
2023/08/28 05:55:08;;;;;;;2.78;2.67;;;18.20;99.90;;;18.43;91.35;101077.78;5048311;28;20041;-72
2023/08/28 05:57:38;;;;;;;3.00;2.90;;;18.20;99.90;;;18.58;90.79;101092.50;5039725;28;20049;-72
2023/08/28 06:00:09;;;;;;;3.17;3.07;;;18.30;99.90;;;18.49;91.34;101096.34;5044766;28;20057;-71
2023/08/28 06:02:40;;;;;;;2.50;2.40;;;18.10;99.90;;;18.59;91.63;101095.13;5043941;28;20391;-73
2023/08/28 06:05:09;;;;;;;2.85;2.75;;;18.20;99.90;;;18.54;91.32;101075.63;5050003;28;20057;-72
2023/08/28 06:07:38;;;;;;;3.30;3.20;;;18.30;99.90;;;18.67;91.28;101092.19;5049070;28;20090;-72
2023/08/28 06:10:08;;;;;;;3.22;3.13;;;18.30;99.90;;;18.70;91.97;101098.31;5042138;28;20288;-70
2023/08/28 06:12:38;;;;;;;2.90;2.80;;;18.30;99.90;;;18.71;91.68;101092.03;5048328;28;20050;-72
2023/08/28 06:15:09;;;;;;;3.00;2.90;;;18.40;99.90;;;18.78;91.22;101090.88;5043454;28;20532;-72
2023/08/28 06:17:40;;;;;;;3.17;3.08;;;18.40;99.90;;;18.76;91.66;101086.50;5032837;28;20053;-73
2023/08/28 06:20:10;;;;;;;2.60;2.50;;;18.40;99.90;;;18.73;91.46;101098.22;5039509;28;20371;-72
2023/08/28 06:22:39;;;;;;;;;;;18.40;99.90;;;18.67;91.74;101092.19;5043084;28;20050;-73
2023/08/28 06:25:09;;;;;;;2.70;2.60;;;18.30;99.90;;;18.74;91.61;101094.59;5042306;28;19954;-71
2023/08/28 06:27:39;;;;;;;2.90;2.80;;;18.40;99.90;;;18.85;91.45;101100.44;5043683;28;20084;-73
2023/08/28 06:30:09;;;;;;;2.90;2.80;;;18.40;99.90;;;18.86;91.06;101090.63;5048009;28;20132;-72
2023/08/28 06:32:38;;;;;;;3.13;3.03;;;18.50;99.90;;;18.91;90.88;101102.94;5039452;28;20481;-70
2023/08/28 06:35:08;;;;;;;3.10;3.00;;;18.50;99.90;;;18.92;90.31;101096.66;5044046;28;20068;-72
2023/08/28 06:37:37;;;;;;;2.92;2.83;;;18.60;99.90;;;18.96;90.00;101100.09;5041594;28;20045;-72
2023/08/28 06:40:08;;;;;;;2.83;2.72;;;18.60;99.90;;;18.99;89.24;101099.13;5042863;28;20047;-72
2023/08/28 06:42:38;;;;;;;2.92;2.83;;;18.60;99.90;;;19.03;89.06;101100.78;5042537;28;20049;-72
2023/08/28 06:45:10;;;;;;;2.90;2.80;;;18.70;99.90;;;19.08;89.26;101099.66;5047689;28;20058;-72
2023/08/28 06:47:38;;;;;;;2.70;2.60;;;18.70;99.90;;;18.66;89.50;101035.00;5043376;28;20041;-73
2023/08/28 06:50:08;;;;;;;2.92;2.83;;;18.80;99.90;;;19.05;89.25;101104.28;5031622;28;20038;-72
2023/08/28 06:52:38;;;;;;;3.33;3.22;;;18.70;99.90;;;19.18;89.08;101100.22;5032452;28;20044;-73
2023/08/28 06:55:07;;;;;;;2.67;2.58;;;18.80;99.90;;;19.23;89.11;101100.91;5035344;28;20048;-73
2023/08/28 06:57:35;;;;;;;3.15;3.05;;;18.90;99.90;;;19.22;88.54;101104.53;5037653;28;20061;-72
2023/08/28 07:00:08;;;;;;;2.58;2.47;;;18.90;99.90;;;19.18;88.59;101100.22;5046470;28;20045;-73
2023/08/28 07:02:37;;;;;;;2.75;2.65;;;18.90;99.90;;;19.13;88.80;101083.41;5047213;28;20055;-72
2023/08/28 07:05:06;;;;;;;2.70;2.60;;;18.90;99.90;;;19.40;89.55;101109.25;5044536;28;20052;-72
2023/08/28 07:07:35;;;;;;;2.55;2.45;;;19.10;99.90;;;19.50;88.89;101114.22;5044252;28;20049;-73
2023/08/28 07:10:04;;;;;;;3.03;2.92;;;19.30;99.90;;;19.57;88.40;101125.59;5044148;28;20050;-72
2023/08/28 07:12:33;;;;;;;2.92;2.83;;;19.30;99.90;;;19.68;88.71;101120.72;5047085;28;20478;-72
2023/08/28 07:15:58;;;;;;;3.00;2.90;;;19.40;99.90;;;19.95;88.96;101117.00;5045234;28;20045;-70
2023/08/28 07:18:28;;;;;;;3.20;3.10;;;19.60;99.90;;;20.09;87.18;101117.28;5002804;28;20576;-72
2023/08/28 07:20:56;;;;;;;2.80;2.70;;;19.80;99.90;;;20.32;87.76;101124.50;5036059;28;20053;-72
2023/08/28 07:23:25;;;;;;;2.90;2.80;;;20.00;99.90;;;20.56;87.55;101127.06;5035908;28;20497;-72
2023/08/28 07:25:53;;;;;;;2.85;2.75;;;20.30;99.90;;;20.88;86.21;101130.22;5042766;28;20041;-72
2023/08/28 07:28:23;;;;;;;2.95;2.85;;;20.60;99.90;;;21.16;84.69;101138.84;5043114;28;20056;-72
2023/08/28 07:30:51;;;;;;;3.00;2.90;;;20.90;99.90;;;21.56;85.00;101142.41;5044538;28;20553;-73
2023/08/28 07:33:19;;;;;;;2.92;2.83;;;21.30;99.90;;;21.83;83.19;101136.75;5043807;28;20092;-73
2023/08/28 07:35:49;;;;;;;2.47;2.38;;;21.60;99.90;;;22.12;81.48;101137.16;5043961;28;20414;-72
2023/08/28 07:38:18;;;;;;;2.33;2.23;;;21.90;99.90;;;22.36;79.76;101137.75;5046708;28;20102;-72
2023/08/28 07:40:48;;;;;;;2.40;2.30;;;22.10;99.90;;;22.52;78.20;101143.28;5044995;28;20041;-73
2023/08/28 07:43:16;;;;;;;2.53;2.42;;;22.30;99.90;;;22.62;75.00;101139.22;5045648;28;20048;-72
2023/08/28 07:45:45;;;;;;;2.55;2.45;;;22.40;99.90;;;22.83;76.08;101143.53;5045498;28;20514;-73
2023/08/28 07:48:14;;;;;;;2.40;2.30;;;22.50;99.90;;;23.04;72.02;101142.44;5043960;28;20053;-73
2023/08/28 07:50:42;;;;;;;2.33;2.22;;;22.80;99.90;;;23.07;70.05;101132.34;5044775;28;20045;-74
2023/08/28 07:53:13;;;;;;;2.15;2.05;;;22.90;99.90;;;23.32;71.66;101137.41;5043314;28;20037;-73
2023/08/28 07:55:41;;;;;;;2.20;2.10;;;23.10;99.90;;;23.59;71.24;101143.16;5043172;28;20116;-73
2023/08/28 07:58:09;;;;;;;2.05;1.95;;;23.40;99.90;;;23.77;69.39;101153.00;5046309;28;20059;-73
2023/08/28 08:00:40;;;;;;;2.22;2.13;;;23.60;99.90;;;23.83;69.18;101150.81;5043765;28;20506;-73
2023/08/28 08:03:08;;;;;;;2.28;2.17;;;23.70;99.90;;;23.94;68.98;101145.66;5045618;28;20498;-74
2023/08/28 08:05:37;;;;;;;2.85;2.75;;;23.80;99.90;;;24.12;68.42;101150.09;5044747;28;20088;-74
2023/08/28 08:08:07;;;;;;;2.47;2.38;;;24.00;99.90;;;24.30;67.42;101150.91;5044456;28;20048;-74
2023/08/28 08:10:37;;;;;;;2.20;2.10;;;24.20;99.90;;;24.26;67.46;101134.94;5046182;28;20590;-74
2023/08/28 08:13:06;;;;;;;2.13;2.03;;;24.20;99.90;;;24.47;66.82;101153.50;5043015;28;20501;-75
2023/08/28 08:15:37;;;;;;;1.85;1.80;;;24.30;99.90;;;24.30;65.36;101125.69;5041631;28;20049;-75
2023/08/28 08:18:06;;;;;;;2.10;2.00;;;24.40;99.90;;;24.34;65.78;101157.88;5046052;28;20061;-75
2023/08/28 08:20:34;;;;;;;1.83;1.75;;;24.20;99.90;;;24.39;65.34;101160.34;5042903;28;20053;-75
2023/08/28 08:23:03;;;;;;;1.92;1.83;;;24.20;99.90;;;24.52;65.95;101155.97;5044952;28;20061;-74
2023/08/28 08:25:33;;;;;;;2.03;1.92;;;24.30;99.90;;;24.61;65.21;101150.91;5044664;28;20049;-75
2023/08/28 08:28:03;;;;;;;1.60;1.60;;;24.40;99.90;;;24.59;62.53;101168.16;5044038;28;20044;-74
2023/08/28 08:30:32;;;;;;;1.90;1.80;;;24.40;99.90;;;24.28;61.09;101157.34;5046018;28;20410;-73
2023/08/28 08:33:00;;;;;;;2.00;1.90;;;24.20;99.90;;;24.33;63.02;101145.31;5043009;28;20045;-75
2023/08/28 08:35:29;;;;;;;1.80;1.80;;;24.20;99.90;;;24.38;61.81;101164.00;5046582;28;20092;-74
2023/08/28 08:37:57;;;;;;;2.08;1.98;;;24.20;99.90;;;23.98;63.44;101163.47;5034661;28;20061;-74
2023/08/28 08:40:27;;;;;;;2.17;2.08;;;23.80;99.90;;;24.04;64.79;101160.47;5034309;28;20053;-75
2023/08/28 08:42:56;;;;;;;2.13;2.03;;;23.80;99.90;;;24.05;64.62;101155.94;5034984;28;20056;-75
2023/08/28 08:45:28;;;;;;;2.47;2.38;;;23.80;99.90;;;23.92;65.00;101158.44;5040147;28;20041;-75
2023/08/28 08:47:59;;;;;;;2.15;2.05;;;23.70;99.90;;;23.81;65.70;101160.81;5043647;28;20090;-75
2023/08/28 08:50:31;;;;;;;2.17;2.08;;;23.60;99.90;;;23.82;66.73;101165.28;5045213;28;20045;-75
2023/08/28 08:53:06;;;;;;;2.00;1.90;;;23.60;99.90;;;23.77;67.72;101158.38;5041755;28;20049;-75
2023/08/28 08:55:41;;;;;;;2.28;2.17;;;23.50;99.90;;;23.71;67.22;101167.66;5044066;28;20059;-74
2023/08/28 08:58:12;;;;;;;2.13;2.03;;;23.40;99.90;;;23.71;66.96;101164.97;5044720;28;20045;-75
2023/08/28 09:00:43;;;;;;;2.05;1.95;;;23.40;99.90;;;23.22;66.44;101055.13;5042388;28;20103;-74
2023/08/28 09:03:14;;;;;;;2.25;2.15;;;23.50;99.90;;;23.87;65.99;101157.78;5044110;28;20148;-75
2023/08/28 09:05:44;;;;;;;2.20;2.10;;;23.60;99.90;;;23.90;65.86;101164.88;5034058;28;20049;-74
2023/08/28 09:08:16;;;;;;;1.92;1.83;;;23.60;99.90;;;23.91;63.34;101162.06;5034209;28;20046;-74
2023/08/28 09:10:46;;;;;;;2.30;2.20;;;23.70;99.90;;;23.92;64.56;101155.72;5040500;28;20060;-73
2023/08/28 09:13:14;;;;;;;1.95;1.85;;;23.70;99.90;;;23.40;62.79;101143.28;5040766;28;20057;-74
2023/08/28 09:15:44;;;;;;;2.40;2.30;;;23.30;99.90;;;23.66;63.82;101148.16;5042002;28;20698;-75
2023/08/28 09:18:12;;;;;;;2.30;2.20;;;23.40;99.90;;;23.91;64.76;101153.06;5045192;28;20458;-75
2023/08/28 09:20:41;;;;;;;2.25;2.15;;;23.60;99.90;;;24.02;64.24;101156.13;5033734;28;20284;-75
2023/08/28 09:23:09;;;;;;;2.22;2.13;;;23.80;99.90;;;24.06;64.26;101152.28;5033473;28;20053;-75
2023/08/28 09:25:40;;;;;;;2.10;2.00;;;23.80;99.90;;;23.88;62.87;101153.25;5034086;28;20103;-75
2023/08/28 09:28:08;;;;;;;2.58;2.47;;;23.60;99.90;;;23.73;61.40;101154.09;5033638;28;20124;-74
2023/08/28 09:30:37;;;;;;;2.30;2.20;;;23.50;99.90;;;23.77;61.09;101161.94;5043398;28;20073;-75
2023/08/28 09:33:08;;;;;;;2.60;2.50;;;23.50;99.90;;;23.47;60.93;101155.50;5043077;28;20057;-74
2023/08/28 09:35:41;;;;;;;1.95;1.85;;;23.30;99.90;;;23.60;61.68;101153.00;5044929;28;20045;-75
2023/08/28 09:38:10;;;;;;;2.05;1.95;;;23.30;99.90;;;23.61;62.08;101179.06;5033556;28;20041;-75
2023/08/28 09:40:41;;;;;;;2.55;2.45;;;23.40;99.90;;;23.69;61.13;101158.78;5033466;28;20088;-75
2023/08/28 09:43:12;;;;;;;2.22;2.13;;;23.40;99.90;;;23.17;61.47;101068.00;5033287;28;20137;-75
2023/08/28 09:45:42;;;;;;;2.20;2.10;;;23.40;99.90;;;23.66;62.35;101160.78;5035951;28;20403;-74
2023/08/28 09:48:15;;;;;;;2.28;2.17;;;23.40;99.90;;;23.86;62.93;101164.16;5042627;28;20046;-75
2023/08/28 09:50:44;;;;;;;2.20;2.10;;;23.60;99.90;;;24.01;58.52;101176.84;5044809;28;20145;-74
2023/08/28 09:53:14;;;;;;;2.13;2.03;;;23.80;99.90;;;24.20;59.84;101170.44;5042820;28;20102;-75
2023/08/28 09:55:50;;;;;;;2.00;1.90;;;23.90;99.90;;;24.39;59.11;101172.00;5041246;28;20483;-75
2023/08/28 09:58:20;;;;;;;2.17;2.08;;;24.20;99.90;;;24.42;59.92;101171.84;5049176;28;20056;-74
2023/08/28 10:00:50;;;;;;;1.70;1.70;;;24.20;99.90;;;24.34;59.65;101174.13;5043430;28;20052;-74
2023/08/28 10:03:22;;;;;;;1.80;1.80;;;24.20;99.90;;;24.23;59.27;101168.44;5041516;28;20049;-74
2023/08/28 10:05:53;;;;;;;2.20;2.10;;;24.10;99.90;;;24.15;59.95;101174.28;5040985;28;20125;-75
2023/08/28 10:08:28;;;;;;;1.90;1.80;;;23.90;99.90;;;24.04;60.21;101163.16;5043745;28;20049;-75
2023/08/28 10:10:58;;;;;;;2.47;2.38;;;23.80;99.90;;;23.94;60.66;101163.75;5043175;28;20053;-75
2023/08/28 10:13:27;;;;;;;1.92;1.83;;;23.70;99.90;;;23.86;61.66;101161.47;5048531;28;20081;-75
2023/08/28 10:16:04;;;;;;;1.98;1.88;;;23.60;99.90;;;24.12;62.16;101157.34;5044149;28;20132;-75
2023/08/28 10:18:39;;;;;;;1.98;1.88;;;23.80;99.90;;;24.23;60.99;101164.84;5041512;28;20045;-75
2023/08/28 10:21:08;;;;;;;2.05;1.95;;;23.90;99.90;;;24.14;59.73;101159.00;5042675;28;20045;-75
2023/08/28 10:23:38;;;;;;;2.13;2.03;;;24.00;99.90;;;24.42;60.88;101161.03;5043131;28;20056;-74